sensor_id;sensor_type;location;lat;lon;timestamp;pressure;altitude;pressure_sealevel;temperature;humidity
13765;BME280;6953;48.810;9.204;2023-04-08T00:02:18;98718.19;;;9.36;98.81
13765;BME280;6953;48.810;9.204;2023-04-08T00:04:43;98877.06;;;10.28;98.99
13765;BME280;6953;48.810;9.204;2023-04-08T00:07:09;98709.91;;;9.27;98.83
13765;BME280;6953;48.810;9.204;2023-04-08T00:09:34;98980.28;;;10.79;99.63
13765;BME280;6953;48.810;9.204;2023-04-08T00:12:00;98727.88;;;9.34;99.53
13765;BME280;6953;48.810;9.204;2023-04-08T00:14:26;98945.53;;;10.57;99.95
13765;BME280;6953;48.810;9.204;2023-04-08T00:16:51;99016.00;;;11.00;99.86
13765;BME280;6953;48.810;9.204;2023-04-08T00:19:16;99009.19;;;10.96;100.00
13765;BME280;6953;48.810;9.204;2023-04-08T00:21:42;98993.31;;;10.80;100.00
13765;BME280;6953;48.810;9.204;2023-04-08T00:24:07;99011.22;;;10.72;100.00
13765;BME280;6953;48.810;9.204;2023-04-08T00:26:32;98742.47;;;9.21;100.00
13765;BME280;6953;48.810;9.204;2023-04-08T00:28:58;99013.06;;;10.70;100.00
13765;BME280;6953;48.810;9.204;2023-04-08T00:31:23;98741.50;;;9.05;100.00
13765;BME280;6953;48.810;9.204;2023-04-08T00:33:49;99029.09;;;10.64;100.00
13765;BME280;6953;48.810;9.204;2023-04-08T00:36:14;99014.19;;;10.65;100.00
13765;BME280;6953;48.810;9.204;2023-04-08T00:38:40;98918.75;;;10.15;100.00
13765;BME280;6953;48.810;9.204;2023-04-08T00:41:05;99022.34;;;10.77;100.00
13765;BME280;6953;48.810;9.204;2023-04-08T00:43:30;98919.53;;;10.17;100.00
13765;BME280;6953;48.810;9.204;2023-04-08T00:45:56;99022.97;;;10.82;100.00
13765;BME280;6953;48.810;9.204;2023-04-08T00:48:21;99029.22;;;10.80;100.00
13765;BME280;6953;48.810;9.204;2023-04-08T00:50:47;99014.88;;;10.87;100.00
13765;BME280;6953;48.810;9.204;2023-04-08T00:53:16;99050.25;;;10.97;100.00
13765;BME280;6953;48.810;9.204;2023-04-08T00:55:41;98965.78;;;10.53;100.00
13765;BME280;6953;48.810;9.204;2023-04-08T00:58:07;98997.09;;;10.75;100.00
13765;BME280;6953;48.810;9.204;2023-04-08T01:00:34;98766.94;;;9.38;100.00
13765;BME280;6953;48.810;9.204;2023-04-08T01:03:04;99025.31;;;10.88;100.00
13765;BME280;6953;48.810;9.204;2023-04-08T01:08:15;99026.09;;;10.90;100.00
13765;BME280;6953;48.810;9.204;2023-04-08T01:10:44;98760.16;;;9.34;100.00
13765;BME280;6953;48.810;9.204;2023-04-08T01:13:16;98947.88;;;10.44;100.00
13765;BME280;6953;48.810;9.204;2023-04-08T01:15:43;98787.53;;;9.46;100.00
13765;BME280;6953;48.810;9.204;2023-04-08T01:18:13;99027.22;;;10.85;100.00
13765;BME280;6953;48.810;9.204;2023-04-08T01:20:41;99006.13;;;10.69;100.00
13765;BME280;6953;48.810;9.204;2023-04-08T01:23:17;98967.22;;;10.42;100.00
13765;BME280;6953;48.810;9.204;2023-04-08T01:25:54;99029.16;;;10.81;100.00
13765;BME280;6953;48.810;9.204;2023-04-08T01:28:22;99035.22;;;10.82;100.00
13765;BME280;6953;48.810;9.204;2023-04-08T01:30:48;99011.28;;;10.71;100.00
13765;BME280;6953;48.810;9.204;2023-04-08T01:33:16;99033.38;;;10.84;100.00
13765;BME280;6953;48.810;9.204;2023-04-08T01:35:43;98949.03;;;10.39;100.00
13765;BME280;6953;48.810;9.204;2023-04-08T01:38:16;99033.25;;;10.87;100.00
13765;BME280;6953;48.810;9.204;2023-04-08T01:40:43;98928.63;;;10.27;99.70
13765;BME280;6953;48.810;9.204;2023-04-08T01:43:09;99027.31;;;10.83;99.80
13765;BME280;6953;48.810;9.204;2023-04-08T01:45:35;98787.03;;;9.38;99.65
13765;BME280;6953;48.810;9.204;2023-04-08T01:48:01;98759.94;;;9.21;99.61
13765;BME280;6953;48.810;9.204;2023-04-08T01:50:28;99030.16;;;10.79;99.72
13765;BME280;6953;48.810;9.204;2023-04-08T01:52:55;99067.19;;;10.73;99.81
13765;BME280;6953;48.810;9.204;2023-04-08T01:55:21;98835.88;;;9.57;99.51
13765;BME280;6953;48.810;9.204;2023-04-08T01:57:49;99035.56;;;10.76;99.56
13765;BME280;6953;48.810;9.204;2023-04-08T02:00:20;99011.56;;;10.65;99.75
13765;BME280;6953;48.810;9.204;2023-04-08T02:02:47;99031.28;;;10.73;99.54
13765;BME280;6953;48.810;9.204;2023-04-08T02:05:13;99036.38;;;10.76;99.93
13765;BME280;6953;48.810;9.204;2023-04-08T02:07:39;98964.19;;;10.32;99.49
13765;BME280;6953;48.810;9.204;2023-04-08T02:10:05;99016.03;;;10.63;99.90
13765;BME280;6953;48.810;9.204;2023-04-08T02:12:32;99036.91;;;10.66;99.61
13765;BME280;6953;48.810;9.204;2023-04-08T02:14:57;99026.94;;;10.72;99.43
13765;BME280;6953;48.810;9.204;2023-04-08T02:20:12;99033.84;;;10.75;99.52
13765;BME280;6953;48.810;9.204;2023-04-08T02:25:23;99011.91;;;10.59;99.72
13765;BME280;6953;48.810;9.204;2023-04-08T02:27:51;99033.22;;;10.70;99.68
13765;BME280;6953;48.810;9.204;2023-04-08T02:30:19;99036.75;;;10.69;99.59
13765;BME280;6953;48.810;9.204;2023-04-08T02:32:46;98755.50;;;9.04;99.30
13765;BME280;6953;48.810;9.204;2023-04-08T02:35:13;98982.91;;;10.43;99.72
13765;BME280;6953;48.810;9.204;2023-04-08T02:37:39;98969.53;;;10.31;99.73
13765;BME280;6953;48.810;9.204;2023-04-08T02:40:26;99033.44;;;10.65;100.00
13765;BME280;6953;48.810;9.204;2023-04-08T02:42:52;99003.13;;;10.41;100.00
13765;BME280;6953;48.810;9.204;2023-04-08T02:45:18;99006.75;;;10.39;100.00
13765;BME280;6953;48.810;9.204;2023-04-08T02:47:44;98752.78;;;8.87;100.00
13765;BME280;6953;48.810;9.204;2023-04-08T02:50:09;98645.06;;;8.23;100.00
13765;BME280;6953;48.810;9.204;2023-04-08T02:52:35;98718.09;;;8.64;100.00
13765;BME280;6953;48.810;9.204;2023-04-08T02:55:00;98966.28;;;10.08;100.00
13765;BME280;6953;48.810;9.204;2023-04-08T02:57:26;99008.78;;;10.32;100.00
13765;BME280;6953;48.810;9.204;2023-04-08T02:59:51;98915.25;;;9.78;100.00
13765;BME280;6953;48.810;9.204;2023-04-08T03:02:17;99045.13;;;10.40;100.00
13765;BME280;6953;48.810;9.204;2023-04-08T03:04:42;98724.69;;;8.54;100.00
13765;BME280;6953;48.810;9.204;2023-04-08T03:07:08;98786.47;;;8.95;100.00
13765;BME280;6953;48.810;9.204;2023-04-08T03:09:33;98717.94;;;8.48;100.00
13765;BME280;6953;48.810;9.204;2023-04-08T03:11:58;98754.38;;;8.71;100.00
13765;BME280;6953;48.810;9.204;2023-04-08T03:14:24;99037.00;;;10.28;100.00
13765;BME280;6953;48.810;9.204;2023-04-08T03:16:49;99022.09;;;10.28;100.00
13765;BME280;6953;48.810;9.204;2023-04-08T03:19:15;98739.38;;;8.56;100.00
13765;BME280;6953;48.810;9.204;2023-04-08T03:21:40;99044.09;;;10.26;100.00
13765;BME280;6953;48.810;9.204;2023-04-08T03:24:05;99032.59;;;10.28;100.00
13765;BME280;6953;48.810;9.204;2023-04-08T03:26:31;99012.97;;;10.18;100.00
13765;BME280;6953;48.810;9.204;2023-04-08T03:28:56;98747.00;;;8.61;100.00
13765;BME280;6953;48.810;9.204;2023-04-08T03:31:22;98753.03;;;8.63;100.00
13765;BME280;6953;48.810;9.204;2023-04-08T03:33:47;99037.94;;;10.27;100.00
13765;BME280;6953;48.810;9.204;2023-04-08T03:36:12;98868.56;;;9.30;100.00
13765;BME280;6953;48.810;9.204;2023-04-08T03:38:38;98955.31;;;9.80;100.00
13765;BME280;6953;48.810;9.204;2023-04-08T03:41:03;99037.75;;;10.30;100.00
13765;BME280;6953;48.810;9.204;2023-04-08T03:43:28;99040.38;;;10.30;100.00
13765;BME280;6953;48.810;9.204;2023-04-08T03:45:55;98804.13;;;8.90;100.00
13765;BME280;6953;48.810;9.204;2023-04-08T03:48:20;99065.13;;;10.24;100.00
13765;BME280;6953;48.810;9.204;2023-04-08T03:50:46;99016.66;;;10.14;100.00
13765;BME280;6953;48.810;9.204;2023-04-08T03:53:11;99052.88;;;10.25;100.00
13765;BME280;6953;48.810;9.204;2023-04-08T03:55:37;99068.59;;;10.25;100.00
13765;BME280;6953;48.810;9.204;2023-04-08T03:58:03;98746.28;;;8.57;100.00
13765;BME280;6953;48.810;9.204;2023-04-08T04:00:28;99037.94;;;10.27;100.00
13765;BME280;6953;48.810;9.204;2023-04-08T04:02:55;99036.09;;;10.29;100.00
13765;BME280;6953;48.810;9.204;2023-04-08T04:05:21;98933.38;;;9.64;100.00
13765;BME280;6953;48.810;9.204;2023-04-08T04:07:46;99033.75;;;10.23;100.00
13765;BME280;6953;48.810;9.204;2023-04-08T04:10:11;99022.97;;;10.10;100.00
13765;BME280;6953;48.810;9.204;2023-04-08T04:12:37;99030.47;;;10.18;100.00
13765;BME280;6953;48.810;9.204;2023-04-08T04:15:02;99032.25;;;10.17;100.00
13765;BME280;6953;48.810;9.204;2023-04-08T04:17:28;99025.66;;;10.09;100.00
13765;BME280;6953;48.810;9.204;2023-04-08T04:19:53;98942.31;;;9.58;100.00
13765;BME280;6953;48.810;9.204;2023-04-08T04:22:19;98995.63;;;9.77;100.00
13765;BME280;6953;48.810;9.204;2023-04-08T04:24:47;98756.31;;;8.28;100.00
13765;BME280;6953;48.810;9.204;2023-04-08T04:27:13;99059.44;;;9.76;100.00
13765;BME280;6953;48.810;9.204;2023-04-08T04:29:39;99040.91;;;9.61;100.00
13765;BME280;6953;48.810;9.204;2023-04-08T04:32:04;99031.78;;;9.49;100.00
13765;BME280;6953;48.810;9.204;2023-04-08T04:34:30;98758.69;;;7.71;100.00
13765;BME280;6953;48.810;9.204;2023-04-08T04:36:56;99031.91;;;9.07;100.00
13765;BME280;6953;48.810;9.204;2023-04-08T04:39:22;99048.94;;;9.17;100.00
13765;BME280;6953;48.810;9.204;2023-04-08T04:41:47;98903.94;;;8.18;100.00
13765;BME280;6953;48.810;9.204;2023-04-08T04:44:13;98667.19;;;6.67;100.00
13765;BME280;6953;48.810;9.204;2023-04-08T04:46:38;99055.66;;;8.81;100.00
13765;BME280;6953;48.810;9.204;2023-04-08T04:49:04;99038.13;;;8.61;100.00
13765;BME280;6953;48.810;9.204;2023-04-08T04:51:30;99066.16;;;8.58;100.00
13765;BME280;6953;48.810;9.204;2023-04-08T04:53:57;99082.16;;;8.50;100.00
13765;BME280;6953;48.810;9.204;2023-04-08T04:56:22;99103.75;;;8.55;100.00
13765;BME280;6953;48.810;9.204;2023-04-08T04:58:47;99067.31;;;8.51;100.00
13765;BME280;6953;48.810;9.204;2023-04-08T05:01:13;99067.44;;;8.48;100.00
13765;BME280;6953;48.810;9.204;2023-04-08T05:03:38;99071.88;;;8.46;100.00
13765;BME280;6953;48.810;9.204;2023-04-08T05:06:03;99066.03;;;8.17;100.00
13765;BME280;6953;48.810;9.204;2023-04-08T05:08:29;99064.38;;;8.37;100.00
13765;BME280;6953;48.810;9.204;2023-04-08T05:10:55;98895.06;;;7.33;100.00
13765;BME280;6953;48.810;9.204;2023-04-08T05:13:20;98791.13;;;6.76;100.00
13765;BME280;6953;48.810;9.204;2023-04-08T05:15:46;99084.16;;;8.44;100.00
13765;BME280;6953;48.810;9.204;2023-04-08T05:18:11;99082.50;;;8.41;100.00
13765;BME280;6953;48.810;9.204;2023-04-08T05:20:37;99098.19;;;8.41;100.00
13765;BME280;6953;48.810;9.204;2023-04-08T05:23:02;99083.31;;;8.43;100.00
13765;BME280;6953;48.810;9.204;2023-04-08T05:25:29;99031.34;;;8.12;100.00
13765;BME280;6953;48.810;9.204;2023-04-08T05:27:54;98851.50;;;6.88;100.00
13765;BME280;6953;48.810;9.204;2023-04-08T05:30:20;99073.13;;;8.36;100.00
13765;BME280;6953;48.810;9.204;2023-04-08T05:32:45;99100.94;;;8.60;100.00
13765;BME280;6953;48.810;9.204;2023-04-08T05:35:11;99040.84;;;8.37;100.00
13765;BME280;6953;48.810;9.204;2023-04-08T05:37:36;99102.44;;;8.67;100.00
13765;BME280;6953;48.810;9.204;2023-04-08T05:40:01;99098.84;;;8.91;100.00
13765;BME280;6953;48.810;9.204;2023-04-08T05:42:27;99079.88;;;8.86;100.00
13765;BME280;6953;48.810;9.204;2023-04-08T05:44:53;98982.91;;;8.47;100.00
13765;BME280;6953;48.810;9.204;2023-04-08T05:47:18;98820.56;;;7.69;100.00
13765;BME280;6953;48.810;9.204;2023-04-08T05:49:43;98886.69;;;8.35;100.00
13765;BME280;6953;48.810;9.204;2023-04-08T05:52:09;98932.31;;;8.70;100.00
13765;BME280;6953;48.810;9.204;2023-04-08T05:54:34;99110.28;;;9.91;100.00
13765;BME280;6953;48.810;9.204;2023-04-08T05:56:59;99119.16;;;10.08;100.00
13765;BME280;6953;48.810;9.204;2023-04-08T05:59:25;99118.56;;;10.22;100.00
13765;BME280;6953;48.810;9.204;2023-04-08T06:01:50;99141.16;;;10.24;100.00
13765;BME280;6953;48.810;9.204;2023-04-08T06:04:15;99120.94;;;10.46;100.00
13765;BME280;6953;48.810;9.204;2023-04-08T06:06:42;99118.59;;;10.58;100.00
13765;BME280;6953;48.810;9.204;2023-04-08T06:09:07;99098.53;;;10.57;100.00
13765;BME280;6953;48.810;9.204;2023-04-08T06:11:34;99124.22;;;10.69;100.00
13765;BME280;6953;48.810;9.204;2023-04-08T06:14:00;99132.50;;;10.79;100.00
13765;BME280;6953;48.810;9.204;2023-04-08T06:16:25;99089.50;;;10.63;100.00
13765;BME280;6953;48.810;9.204;2023-04-08T06:18:51;99048.81;;;10.54;100.00
13765;BME280;6953;48.810;9.204;2023-04-08T06:21:16;99185.38;;;11.08;100.00
13765;BME280;6953;48.810;9.204;2023-04-08T06:23:41;98932.38;;;9.85;100.00
13765;BME280;6953;48.810;9.204;2023-04-08T06:26:07;99100.06;;;10.98;100.00
13765;BME280;6953;48.810;9.204;2023-04-08T06:28:32;99116.72;;;11.16;100.00
13765;BME280;6953;48.810;9.204;2023-04-08T06:30:58;99093.47;;;11.25;99.46
13765;BME280;6953;48.810;9.204;2023-04-08T06:33:24;99145.72;;;11.66;98.30
13765;BME280;6953;48.810;9.204;2023-04-08T06:35:49;99059.72;;;11.18;96.33
13765;BME280;6953;48.810;9.204;2023-04-08T06:38:14;98872.34;;;10.34;95.30
13765;BME280;6953;48.810;9.204;2023-04-08T06:40:40;99129.84;;;12.02;94.64
13765;BME280;6953;48.810;9.204;2023-04-08T06:43:05;99104.63;;;11.98;93.18
13765;BME280;6953;48.810;9.204;2023-04-08T06:45:32;99161.06;;;12.42;92.18
13765;BME280;6953;48.810;9.204;2023-04-08T06:47:58;99151.13;;;12.46;91.60
13765;BME280;6953;48.810;9.204;2023-04-08T06:50:26;99152.91;;;12.46;90.57
13765;BME280;6953;48.810;9.204;2023-04-08T06:52:51;99164.75;;;12.38;90.89
13765;BME280;6953;48.810;9.204;2023-04-08T06:55:17;99167.03;;;12.28;89.54
13765;BME280;6953;48.810;9.204;2023-04-08T06:57:42;99160.47;;;12.20;89.75
13765;BME280;6953;48.810;9.204;2023-04-08T07:00:08;99163.78;;;12.23;89.82
13765;BME280;6953;48.810;9.204;2023-04-08T07:02:34;99095.53;;;11.88;89.56
13765;BME280;6953;48.810;9.204;2023-04-08T07:04:59;99096.69;;;11.99;89.23
13765;BME280;6953;48.810;9.204;2023-04-08T07:07:25;99136.75;;;12.37;88.66
13765;BME280;6953;48.810;9.204;2023-04-08T07:09:50;99025.84;;;11.96;86.81
13765;BME280;6953;48.810;9.204;2023-04-08T07:12:16;99196.88;;;12.93;85.69
13765;BME280;6953;48.810;9.204;2023-04-08T07:14:41;99166.13;;;13.09;85.41
13765;BME280;6953;48.810;9.204;2023-04-08T07:17:07;99160.44;;;13.32;84.71
13765;BME280;6953;48.810;9.204;2023-04-08T07:19:32;98928.47;;;12.29;82.56
13765;BME280;6953;48.810;9.204;2023-04-08T07:21:57;99180.09;;;14.01;82.20
13765;BME280;6953;48.810;9.204;2023-04-08T07:24:23;99167.84;;;14.00;79.58
13765;BME280;6953;48.810;9.204;2023-04-08T07:26:48;99183.50;;;14.03;79.68
13765;BME280;6953;48.810;9.204;2023-04-08T07:29:14;99169.28;;;14.05;79.39
13765;BME280;6953;48.810;9.204;2023-04-08T07:31:41;99132.88;;;13.96;78.40
13765;BME280;6953;48.810;9.204;2023-04-08T07:34:07;99170.34;;;14.46;78.30
13765;BME280;6953;48.810;9.204;2023-04-08T07:36:32;99173.00;;;14.88;76.92
13765;BME280;6953;48.810;9.204;2023-04-08T07:38:58;98935.03;;;13.54;73.77
13765;BME280;6953;48.810;9.204;2023-04-08T07:41:23;99188.50;;;15.20;72.94
13765;BME280;6953;48.810;9.204;2023-04-08T07:43:48;99191.69;;;15.25;72.95
13765;BME280;6953;48.810;9.204;2023-04-08T07:46:13;99188.53;;;15.34;72.29
13765;BME280;6953;48.810;9.204;2023-04-08T07:48:39;99207.09;;;15.19;72.02
13765;BME280;6953;48.810;9.204;2023-04-08T07:51:08;99192.16;;;15.46;70.92
13765;BME280;6953;48.810;9.204;2023-04-08T07:53:34;99060.13;;;14.76;70.79
13765;BME280;6953;48.810;9.204;2023-04-08T07:56:00;99105.16;;;15.15;69.35
13765;BME280;6953;48.810;9.204;2023-04-08T07:58:28;99182.13;;;15.51;69.66
13765;BME280;6953;48.810;9.204;2023-04-08T08:00:53;99139.91;;;15.49;68.41
13765;BME280;6953;48.810;9.204;2023-04-08T08:03:18;99060.41;;;14.85;68.22
13765;BME280;6953;48.810;9.204;2023-04-08T08:05:44;99219.53;;;15.59;69.19
13765;BME280;6953;48.810;9.204;2023-04-08T08:08:09;98985.97;;;14.39;69.00
13765;BME280;6953;48.810;9.204;2023-04-08T08:10:38;99190.66;;;15.68;68.44
13765;BME280;6953;48.810;9.204;2023-04-08T08:13:04;99203.75;;;15.83;68.13
13765;BME280;6953;48.810;9.204;2023-04-08T08:15:30;99198.00;;;16.03;67.74
13765;BME280;6953;48.810;9.204;2023-04-08T08:17:55;99030.69;;;15.35;67.04
13765;BME280;6953;48.810;9.204;2023-04-08T08:20:21;99206.59;;;16.70;64.84
13765;BME280;6953;48.810;9.204;2023-04-08T08:22:46;99227.44;;;16.38;63.48
13765;BME280;6953;48.810;9.204;2023-04-08T08:25:11;99208.09;;;16.23;64.40
13765;BME280;6953;48.810;9.204;2023-04-08T08:27:37;99200.47;;;16.19;64.87
13765;BME280;6953;48.810;9.204;2023-04-08T08:30:05;99193.78;;;16.26;65.38
13765;BME280;6953;48.810;9.204;2023-04-08T08:32:31;99206.03;;;16.66;65.04
13765;BME280;6953;48.810;9.204;2023-04-08T08:34:56;99032.25;;;16.01;63.39
13765;BME280;6953;48.810;9.204;2023-04-08T08:37:22;99170.63;;;16.79;60.51
13765;BME280;6953;48.810;9.204;2023-04-08T08:39:47;99213.38;;;17.60;59.62
13765;BME280;6953;48.810;9.204;2023-04-08T08:42:20;99197.13;;;18.57;54.31
13765;BME280;6953;48.810;9.204;2023-04-08T08:44:47;99123.66;;;18.88;53.16
13765;BME280;6953;48.810;9.204;2023-04-08T08:47:12;99210.38;;;19.46;53.42
13765;BME280;6953;48.810;9.204;2023-04-08T08:49:38;99213.75;;;19.48;51.13
13765;BME280;6953;48.810;9.204;2023-04-08T08:52:03;99221.03;;;20.30;49.87
13765;BME280;6953;48.810;9.204;2023-04-08T08:54:28;99203.38;;;21.20;45.89
13765;BME280;6953;48.810;9.204;2023-04-08T08:56:54;99227.78;;;21.85;42.91
13765;BME280;6953;48.810;9.204;2023-04-08T08:59:19;99016.31;;;20.84;41.50
13765;BME280;6953;48.810;9.204;2023-04-08T09:01:44;99226.25;;;22.02;41.12
13765;BME280;6953;48.810;9.204;2023-04-08T09:04:11;99227.13;;;22.02;41.12
13765;BME280;6953;48.810;9.204;2023-04-08T09:06:37;99241.66;;;21.70;42.22
13765;BME280;6953;48.810;9.204;2023-04-08T09:09:03;99235.78;;;21.66;40.93
13765;BME280;6953;48.810;9.204;2023-04-08T09:11:35;99144.03;;;20.78;41.10
13765;BME280;6953;48.810;9.204;2023-04-08T09:14:01;99241.97;;;21.37;41.12
13765;BME280;6953;48.810;9.204;2023-04-08T09:16:26;99238.28;;;21.28;40.89
13765;BME280;6953;48.810;9.204;2023-04-08T09:18:53;99256.72;;;20.70;41.41
13765;BME280;6953;48.810;9.204;2023-04-08T09:21:21;99127.31;;;19.63;43.53
13765;BME280;6953;48.810;9.204;2023-04-08T09:23:50;99234.31;;;20.41;44.10
13765;BME280;6953;48.810;9.204;2023-04-08T09:26:17;99258.16;;;21.15;41.63
13765;BME280;6953;48.810;9.204;2023-04-08T09:31:26;99229.03;;;21.72;39.67
13765;BME280;6953;48.810;9.204;2023-04-08T09:33:59;99031.25;;;21.05;37.22
13765;BME280;6953;48.810;9.204;2023-04-08T09:36:26;99006.56;;;21.41;36.66
13765;BME280;6953;48.810;9.204;2023-04-08T09:38:53;99227.50;;;23.02;35.59
13765;BME280;6953;48.810;9.204;2023-04-08T09:41:19;99252.34;;;23.40;33.31
13765;BME280;6953;48.810;9.204;2023-04-08T09:43:49;99254.09;;;24.29;30.30
13765;BME280;6953;48.810;9.204;2023-04-08T09:46:17;99190.69;;;23.67;28.31
13765;BME280;6953;48.810;9.204;2023-04-08T09:48:49;99276.84;;;24.08;29.00
13765;BME280;6953;48.810;9.204;2023-04-08T09:51:18;99105.59;;;23.34;28.35
13765;BME280;6953;48.810;9.204;2023-04-08T09:53:47;99198.22;;;23.90;29.39
13765;BME280;6953;48.810;9.204;2023-04-08T09:56:16;99193.09;;;23.97;28.89
13765;BME280;6953;48.810;9.204;2023-04-08T09:58:57;99260.34;;;24.47;29.26
13765;BME280;6953;48.810;9.204;2023-04-08T10:01:28;99212.19;;;24.11;28.94
13765;BME280;6953;48.810;9.204;2023-04-08T10:03:57;98902.84;;;22.02;28.91
13765;BME280;6953;48.810;9.204;2023-04-08T10:06:27;99102.88;;;23.43;28.92
13765;BME280;6953;48.810;9.204;2023-04-08T10:08:55;99273.63;;;24.49;26.62
13765;BME280;6953;48.810;9.204;2023-04-08T10:11:20;99128.03;;;23.77;26.07
13765;BME280;6953;48.810;9.204;2023-04-08T10:13:46;99254.28;;;24.45;26.24
13765;BME280;6953;48.810;9.204;2023-04-08T10:18:43;99272.84;;;23.95;28.32
13765;BME280;6953;48.810;9.204;2023-04-08T10:23:58;99099.53;;;21.17;29.75
13765;BME280;6953;48.810;9.204;2023-04-08T10:26:29;99067.81;;;20.04;31.81
13765;BME280;6953;48.810;9.204;2023-04-08T10:31:41;99131.63;;;19.10;34.60
13765;BME280;6953;48.810;9.204;2023-04-08T10:34:22;99248.81;;;19.64;35.16
13765;BME280;6953;48.810;9.204;2023-04-08T10:36:49;99145.69;;;18.80;34.84
13765;BME280;6953;48.810;9.204;2023-04-08T10:39:15;99006.59;;;17.57;35.47
13765;BME280;6953;48.810;9.204;2023-04-08T10:41:44;98895.56;;;16.61;36.44
13765;BME280;6953;48.810;9.204;2023-04-08T10:44:24;99218.19;;;18.25;38.21
13765;BME280;6953;48.810;9.204;2023-04-08T10:46:51;99217.31;;;18.01;38.96
13765;BME280;6953;48.810;9.204;2023-04-08T10:49:17;99234.94;;;17.79;39.15
13765;BME280;6953;48.810;9.204;2023-04-08T10:51:43;99013.31;;;16.19;38.87
13765;BME280;6953;48.810;9.204;2023-04-08T10:54:11;99116.63;;;16.57;39.49
13765;BME280;6953;48.810;9.204;2023-04-08T10:56:51;99252.47;;;17.08;38.95
13765;BME280;6953;48.810;9.204;2023-04-08T10:59:29;99257.69;;;16.85;39.10
13765;BME280;6953;48.810;9.204;2023-04-08T11:01:55;99007.78;;;15.35;39.18
13765;BME280;6953;48.810;9.204;2023-04-08T11:04:21;99259.25;;;16.75;39.56
13765;BME280;6953;48.810;9.204;2023-04-08T11:06:48;99236.38;;;16.49;39.69
13765;BME280;6953;48.810;9.204;2023-04-08T11:09:14;99091.41;;;15.63;39.96
13765;BME280;6953;48.810;9.204;2023-04-08T11:11:42;99060.53;;;15.75;40.15
13765;BME280;6953;48.810;9.204;2023-04-08T11:14:08;99249.50;;;17.13;39.60
13765;BME280;6953;48.810;9.204;2023-04-08T11:16:33;99257.06;;;17.31;38.89
13765;BME280;6953;48.810;9.204;2023-04-08T11:19:02;99150.78;;;16.97;38.68
13765;BME280;6953;48.810;9.204;2023-04-08T11:21:29;99253.66;;;18.01;38.05
13765;BME280;6953;48.810;9.204;2023-04-08T11:23:55;99253.59;;;18.13;37.43
13765;BME280;6953;48.810;9.204;2023-04-08T11:26:21;99251.75;;;18.26;37.98
13765;BME280;6953;48.810;9.204;2023-04-08T11:28:46;99062.47;;;16.96;38.61
13765;BME280;6953;48.810;9.204;2023-04-08T11:31:16;99269.81;;;18.21;39.15
13765;BME280;6953;48.810;9.204;2023-04-08T11:33:46;99007.50;;;16.75;39.05
13765;BME280;6953;48.810;9.204;2023-04-08T11:36:13;99113.84;;;17.06;39.07
13765;BME280;6953;48.810;9.204;2023-04-08T11:38:38;99198.03;;;17.40;39.59
13765;BME280;6953;48.810;9.204;2023-04-08T11:41:07;99231.63;;;17.52;40.29
13765;BME280;6953;48.810;9.204;2023-04-08T11:43:33;98994.25;;;16.02;40.71
13765;BME280;6953;48.810;9.204;2023-04-08T11:46:07;99239.47;;;17.54;41.41
13765;BME280;6953;48.810;9.204;2023-04-08T11:48:33;99213.72;;;17.43;41.63
13765;BME280;6953;48.810;9.204;2023-04-08T11:51:05;99145.06;;;17.03;40.58
13765;BME280;6953;48.810;9.204;2023-04-08T11:53:34;99210.00;;;17.46;41.10
13765;BME280;6953;48.810;9.204;2023-04-08T11:56:16;99237.47;;;17.57;41.17
13765;BME280;6953;48.810;9.204;2023-04-08T11:58:42;99225.72;;;17.49;41.44
13765;BME280;6953;48.810;9.204;2023-04-08T12:01:07;99229.19;;;17.49;42.14
13765;BME280;6953;48.810;9.204;2023-04-08T12:03:33;99238.34;;;17.33;41.95
13765;BME280;6953;48.810;9.204;2023-04-08T12:05:58;99234.56;;;17.12;42.54
13765;BME280;6953;48.810;9.204;2023-04-08T12:08:23;99261.50;;;17.06;42.51
13765;BME280;6953;48.810;9.204;2023-04-08T12:10:49;99061.50;;;15.99;42.35
13765;BME280;6953;48.810;9.204;2023-04-08T12:13:14;99241.13;;;16.94;42.45
13765;BME280;6953;48.810;9.204;2023-04-08T12:15:40;99244.53;;;16.96;42.77
13765;BME280;6953;48.810;9.204;2023-04-08T12:18:06;99229.06;;;16.90;42.79
13765;BME280;6953;48.810;9.204;2023-04-08T12:20:31;99281.31;;;17.13;42.76
13765;BME280;6953;48.810;9.204;2023-04-08T12:22:56;99250.34;;;17.26;42.13
13765;BME280;6953;48.810;9.204;2023-04-08T12:25:22;99251.53;;;17.34;41.75
13765;BME280;6953;48.810;9.204;2023-04-08T12:27:48;99032.59;;;16.09;41.09
13765;BME280;6953;48.810;9.204;2023-04-08T12:30:13;99228.72;;;17.19;41.60
13765;BME280;6953;48.810;9.204;2023-04-08T12:32:38;99187.06;;;17.09;41.72
13765;BME280;6953;48.810;9.204;2023-04-08T12:35:05;99166.16;;;16.92;41.98
13765;BME280;6953;48.810;9.204;2023-04-08T12:37:30;99257.06;;;17.31;41.85
13765;BME280;6953;48.810;9.204;2023-04-08T12:39:57;99233.47;;;17.27;41.66
13765;BME280;6953;48.810;9.204;2023-04-08T12:42:22;99190.66;;;16.95;41.25
13765;BME280;6953;48.810;9.204;2023-04-08T12:44:48;98989.00;;;15.89;41.19
13765;BME280;6953;48.810;9.204;2023-04-08T12:47:13;99180.75;;;17.22;41.38
13765;BME280;6953;48.810;9.204;2023-04-08T12:49:38;99204.03;;;17.55;41.07
13765;BME280;6953;48.810;9.204;2023-04-08T12:52:04;99240.31;;;17.90;41.46
13765;BME280;6953;48.810;9.204;2023-04-08T12:54:29;99253.25;;;17.94;41.36
13765;BME280;6953;48.810;9.204;2023-04-08T12:56:56;99243.53;;;18.06;42.08
13765;BME280;6953;48.810;9.204;2023-04-08T12:59:21;99239.84;;;18.19;41.40
13765;BME280;6953;48.810;9.204;2023-04-08T13:01:46;99017.91;;;17.01;41.14
13765;BME280;6953;48.810;9.204;2023-04-08T13:04:12;99038.91;;;17.28;40.82
13765;BME280;6953;48.810;9.204;2023-04-08T13:06:37;99204.44;;;18.31;41.05
13765;BME280;6953;48.810;9.204;2023-04-08T13:09:02;99242.53;;;18.54;41.08
13765;BME280;6953;48.810;9.204;2023-04-08T13:11:28;99230.44;;;18.39;41.09
13765;BME280;6953;48.810;9.204;2023-04-08T13:13:53;99116.34;;;17.56;41.76
13765;BME280;6953;48.810;9.204;2023-04-08T13:16:18;99247.03;;;18.06;42.52
13765;BME280;6953;48.810;9.204;2023-04-08T13:18:44;99232.34;;;17.90;42.78
13765;BME280;6953;48.810;9.204;2023-04-08T13:21:09;99254.03;;;17.84;43.43
13765;BME280;6953;48.810;9.204;2023-04-08T13:23:35;99228.22;;;17.63;44.40
13765;BME280;6953;48.810;9.204;2023-04-08T13:26:01;99262.75;;;17.50;44.34